createdAt,value
2022-11-05T00:00:34.867Z,14.70
2022-11-05T00:01:34.862Z,18.00
2022-11-05T00:02:34.863Z,14.30
2022-11-05T00:03:34.854Z,22.50
2022-11-05T00:04:34.805Z,16.30
2022-11-05T00:05:34.773Z,17.60
2022-11-05T00:06:34.772Z,28.30
2022-11-05T00:07:34.758Z,18.80
2022-11-05T00:08:34.751Z,17.00
2022-11-05T00:09:34.773Z,17.30
2022-11-05T00:10:34.880Z,20.80
2022-11-05T00:11:34.714Z,14.90
2022-11-05T00:12:34.721Z,27.50
2022-11-05T00:13:34.733Z,62.10
2022-11-05T00:14:34.725Z,29.40
2022-11-05T00:15:34.686Z,18.20
2022-11-05T00:16:34.654Z,11.50
2022-11-05T00:17:34.682Z,14.50
2022-11-05T00:18:34.651Z,15.90
2022-11-05T00:19:34.655Z,15.90
2022-11-05T00:20:34.637Z,14.80
2022-11-05T00:21:34.601Z,11.80
2022-11-05T00:22:34.609Z,10.10
2022-11-05T00:23:34.643Z,10.10
2022-11-05T00:24:34.594Z,8.20
2022-11-05T00:25:34.567Z,15.40
2022-11-05T00:26:34.608Z,11.60
2022-11-05T00:27:34.557Z,12.50
2022-11-05T00:28:34.556Z,11.70
2022-11-05T00:29:34.543Z,10.10
2022-11-05T00:30:34.532Z,11.80
2022-11-05T00:31:34.515Z,11.90
2022-11-05T00:32:34.572Z,15.90
2022-11-05T00:33:34.475Z,34.90
2022-11-05T00:34:34.498Z,72.00
2022-11-05T00:35:34.486Z,98.60
2022-11-05T00:36:34.468Z,21.20
2022-11-05T00:37:34.452Z,14.80
2022-11-05T00:38:34.470Z,14.10
2022-11-05T00:39:34.420Z,11.10
2022-11-05T00:40:34.437Z,12.30
2022-11-05T00:41:34.437Z,14.60
2022-11-05T00:42:34.403Z,19.40
2022-11-05T00:43:34.371Z,35.10
2022-11-05T00:44:34.408Z,12.50
2022-11-05T00:45:34.381Z,11.70
2022-11-05T00:46:34.375Z,10.90
2022-11-05T00:47:34.344Z,13.20
2022-11-05T00:48:34.345Z,12.80
2022-11-05T00:49:34.369Z,57.20
2022-11-05T00:50:34.355Z,26.30
2022-11-05T00:51:34.304Z,35.60
2022-11-05T00:52:34.306Z,97.40
2022-11-05T00:53:34.280Z,12.70
2022-11-05T00:54:34.304Z,11.00
2022-11-05T00:55:34.311Z,11.60
2022-11-05T00:56:34.262Z,12.50
2022-11-05T00:57:34.247Z,10.90
2022-11-05T00:58:34.224Z,13.10
2022-11-05T00:59:34.281Z,12.80
2022-11-05T01:00:34.222Z,11.70
2022-11-05T01:01:34.395Z,12.20
2022-11-05T01:02:34.362Z,11.40
2022-11-05T01:03:34.192Z,12.80
2022-11-05T01:04:34.171Z,12.30
2022-11-05T01:05:34.151Z,13.10
2022-11-05T01:06:34.167Z,11.90
2022-11-05T01:07:34.272Z,255.50
2022-11-05T01:08:34.166Z,103.80
2022-11-05T01:09:34.126Z,271.00
2022-11-05T01:10:34.100Z,36.30
2022-11-05T01:11:34.107Z,11.20
2022-11-05T01:12:34.081Z,11.30
2022-11-05T01:13:34.086Z,11.70
2022-11-05T01:14:34.097Z,12.40
2022-11-05T01:15:34.064Z,11.70
2022-11-05T01:16:34.059Z,11.50
2022-11-05T01:17:34.045Z,9.10
2022-11-05T01:18:34.045Z,8.40
2022-11-05T01:19:34.001Z,8.60
2022-11-05T01:20:34.015Z,8.80
2022-11-05T01:21:33.987Z,8.30
2022-11-05T01:22:34.046Z,9.40
2022-11-05T01:23:34.382Z,8.30
2022-11-05T01:24:33.985Z,11.50
2022-11-05T01:25:34.007Z,9.60
2022-11-05T01:26:33.929Z,8.90
2022-11-05T01:27:33.964Z,42.20
2022-11-05T01:28:34.019Z,11.40
2022-11-05T01:29:33.924Z,13.90
2022-11-05T01:30:33.895Z,89.40
2022-11-05T01:31:33.939Z,13.40
2022-11-05T01:32:33.927Z,44.00
2022-11-05T01:33:33.860Z,10.20
2022-11-05T01:34:33.874Z,9.50
2022-11-05T01:35:33.832Z,15.50
2022-11-05T01:36:33.851Z,12.90
2022-11-05T01:37:33.861Z,12.30
2022-11-05T01:38:33.831Z,12.30
2022-11-05T01:39:33.812Z,9.90
2022-11-05T01:40:33.831Z,10.40
2022-11-05T01:41:33.811Z,14.40
2022-11-05T01:42:33.770Z,10.20
2022-11-05T01:43:34.031Z,9.80
2022-11-05T01:44:33.821Z,11.60
2022-11-05T01:45:33.764Z,18.90
2022-11-05T01:46:33.726Z,15.60
2022-11-05T01:47:33.706Z,11.10
2022-11-05T01:48:33.720Z,24.50
2022-11-05T01:49:33.715Z,13.90
2022-11-05T01:50:33.714Z,15.60
2022-11-05T01:51:33.711Z,14.40
2022-11-05T01:52:33.687Z,19.00
2022-11-05T01:53:33.657Z,20.50
2022-11-05T01:54:33.672Z,20.70
2022-11-05T01:55:33.695Z,27.20
2022-11-05T01:56:33.654Z,39.70
2022-11-05T01:57:33.622Z,33.10
2022-11-05T01:58:33.588Z,50.10
2022-11-05T01:59:33.628Z,62.80
2022-11-05T02:00:33.630Z,71.80
2022-11-05T02:01:33.736Z,57.20
2022-11-05T02:02:33.662Z,30.00
2022-11-05T02:03:33.596Z,55.40
2022-11-05T02:04:33.557Z,48.00
2022-11-05T02:05:33.530Z,37.40
2022-11-05T02:06:33.533Z,52.20
2022-11-05T02:07:33.536Z,52.30
2022-11-05T02:08:33.509Z,47.20
2022-11-05T02:09:33.503Z,60.50
2022-11-05T02:10:33.468Z,39.40
2022-11-05T02:11:33.531Z,49.20
2022-11-05T02:12:33.468Z,38.70
2022-11-05T02:13:33.477Z,21.20
2022-11-05T02:14:33.450Z,21.30
2022-11-05T02:15:33.450Z,16.00
2022-11-05T02:16:33.420Z,15.70
2022-11-05T02:17:33.435Z,25.00
2022-11-05T02:18:33.394Z,21.70
2022-11-05T02:19:33.398Z,16.70
2022-11-05T02:20:33.408Z,22.40
2022-11-05T02:21:33.361Z,22.10
2022-11-05T02:22:33.362Z,20.00
2022-11-05T02:23:33.390Z,25.60
2022-11-05T02:24:33.329Z,16.90
2022-11-05T02:25:33.333Z,16.70
2022-11-05T02:26:33.334Z,57.10
2022-11-05T02:27:33.327Z,17.70
2022-11-05T02:28:33.277Z,14.20
2022-11-05T02:29:33.277Z,12.40
2022-11-05T02:30:33.263Z,11.60
2022-11-05T02:31:33.300Z,28.70
2022-11-05T02:32:33.247Z,57.30
2022-11-05T02:33:33.266Z,54.20
2022-11-05T02:34:33.311Z,37.30
2022-11-05T02:35:33.247Z,41.40
2022-11-05T02:36:33.250Z,58.10
2022-11-05T02:37:33.243Z,15.10
2022-11-05T02:38:33.207Z,13.20
2022-11-05T02:39:33.179Z,15.20
2022-11-05T02:40:33.220Z,14.00
2022-11-05T02:41:33.189Z,24.10
2022-11-05T02:42:33.207Z,44.30
2022-11-05T02:43:33.161Z,39.80
2022-11-05T02:44:33.132Z,24.80
2022-11-05T02:45:33.126Z,22.60
2022-11-05T02:46:33.168Z,12.60
2022-11-05T02:47:33.100Z,10.50
2022-11-05T02:48:33.088Z,12.40
2022-11-05T02:49:33.079Z,11.30
2022-11-05T02:50:33.063Z,14.50
2022-11-05T02:51:33.068Z,16.60
2022-11-05T02:52:33.060Z,27.10
2022-11-05T02:53:33.037Z,17.60
2022-11-05T02:54:33.051Z,16.50
2022-11-05T02:55:33.035Z,13.90
2022-11-05T02:56:33.015Z,12.90
2022-11-05T02:57:33.044Z,18.60
2022-11-05T02:58:32.981Z,16.00
2022-11-05T02:59:33.011Z,16.30
2022-11-05T03:00:33.001Z,15.20
2022-11-05T03:01:33.073Z,23.30
2022-11-05T03:02:33.123Z,30.20
2022-11-05T03:03:32.975Z,35.60
2022-11-05T03:04:32.938Z,25.30
2022-11-05T03:05:32.917Z,36.20
2022-11-05T03:06:32.915Z,31.00
2022-11-05T03:07:32.892Z,35.30
2022-11-05T03:08:32.913Z,38.50
2022-11-05T03:09:32.925Z,36.10
2022-11-05T03:10:32.900Z,74.30
2022-11-05T03:11:32.895Z,86.80
2022-11-05T03:12:32.860Z,38.40
2022-11-05T03:13:32.861Z,46.20
2022-11-05T03:14:32.821Z,83.70
2022-11-05T03:15:32.822Z,65.10
2022-11-05T03:16:32.796Z,64.20
2022-11-05T03:17:32.784Z,103.80
2022-11-05T03:18:32.790Z,74.60
2022-11-05T03:19:32.805Z,80.60
2022-11-05T03:20:32.740Z,54.50
2022-11-05T03:21:32.756Z,40.00
2022-11-05T03:22:32.774Z,68.50
2022-11-05T03:23:32.770Z,66.50
2022-11-05T03:24:32.700Z,25.90
2022-11-05T03:25:32.708Z,375.00
2022-11-05T03:26:32.694Z,362.70
2022-11-05T03:27:32.698Z,83.40
2022-11-05T03:28:32.677Z,31.40
2022-11-05T03:29:32.675Z,17.20
2022-11-05T03:30:32.651Z,34.60
2022-11-05T03:31:32.654Z,35.60
2022-11-05T03:32:32.679Z,57.60
2022-11-05T03:33:32.649Z,18.80
2022-11-05T03:34:32.612Z,15.30
2022-11-05T03:35:32.662Z,11.40
2022-11-05T03:36:32.613Z,10.50
2022-11-05T03:37:32.584Z,9.80
2022-11-05T03:38:32.603Z,10.80
2022-11-05T03:39:32.555Z,7.60
2022-11-05T03:40:32.538Z,10.90
2022-11-05T03:41:32.554Z,23.10
2022-11-05T03:42:32.529Z,9.90
2022-11-05T03:43:32.534Z,15.10
2022-11-05T03:44:32.498Z,59.70
2022-11-05T03:45:32.506Z,13.90
2022-11-05T03:46:32.513Z,8.20
2022-11-05T03:47:32.474Z,8.70
2022-11-05T03:48:32.556Z,8.90
2022-11-05T03:49:32.450Z,15.10
2022-11-05T03:50:37.077Z,11.00
2022-11-05T03:51:32.443Z,10.50
2022-11-05T03:52:32.461Z,12.60
2022-11-05T03:53:32.411Z,54.50
2022-11-05T03:54:32.388Z,7.60
2022-11-05T03:55:32.474Z,54.80
2022-11-05T03:56:32.391Z,7.50
2022-11-05T03:57:32.394Z,247.30
2022-11-05T03:58:32.357Z,420.80
2022-11-05T03:59:32.391Z,320.50
2022-11-05T04:00:32.351Z,239.80
2022-11-05T04:01:32.500Z,30.00
2022-11-05T04:02:32.514Z,10.70
2022-11-05T04:03:32.328Z,14.00
2022-11-05T04:04:32.315Z,12.70
2022-11-05T04:05:32.302Z,12.70
2022-11-05T04:06:32.260Z,43.80
2022-11-05T04:07:32.329Z,36.30
2022-11-05T04:08:32.280Z,14.50
2022-11-05T04:09:32.259Z,11.40
2022-11-05T04:10:32.224Z,16.30
2022-11-05T04:11:32.272Z,12.20
2022-11-05T04:12:32.223Z,12.30
2022-11-05T04:13:32.226Z,11.80
2022-11-05T04:14:32.200Z,11.90
2022-11-05T04:15:32.200Z,20.90
2022-11-05T04:16:32.177Z,31.00
2022-11-05T04:17:32.184Z,42.20
2022-11-05T04:18:32.239Z,44.40
2022-11-05T04:19:32.178Z,41.90
2022-11-05T04:20:32.157Z,46.40
2022-11-05T04:21:32.133Z,43.50
2022-11-05T04:22:32.105Z,53.00
2022-11-05T04:23:32.107Z,60.10
2022-11-05T04:24:32.117Z,61.90
2022-11-05T04:25:32.104Z,56.20
2022-11-05T04:26:32.070Z,58.40
2022-11-05T04:27:32.060Z,54.90
2022-11-05T04:28:32.087Z,61.00
2022-11-05T04:29:32.152Z,60.90
2022-11-05T04:30:32.011Z,58.00
2022-11-05T04:31:32.059Z,55.20
2022-11-05T04:32:32.027Z,51.70
2022-11-05T04:33:32.044Z,56.00
2022-11-05T04:34:31.998Z,55.60
2022-11-05T04:35:32.018Z,57.00
2022-11-05T04:36:31.967Z,52.30
2022-11-05T04:37:31.959Z,56.10
2022-11-05T04:38:31.966Z,63.10
2022-11-05T04:39:31.942Z,54.50
2022-11-05T04:40:31.915Z,48.80
2022-11-05T04:41:31.997Z,45.60
2022-11-05T04:42:31.898Z,50.60
2022-11-05T04:43:31.911Z,52.50
2022-11-05T04:44:31.883Z,54.10
2022-11-05T04:45:31.904Z,51.00
2022-11-05T04:46:31.866Z,55.90
2022-11-05T04:47:31.858Z,58.50
2022-11-05T04:48:31.863Z,60.20
2022-11-05T04:49:31.854Z,55.70
2022-11-05T04:50:31.822Z,58.20
2022-11-05T04:51:31.829Z,61.20
2022-11-05T04:52:31.808Z,55.90
2022-11-05T04:53:31.827Z,55.90
2022-11-05T04:54:31.780Z,58.80
2022-11-05T04:55:31.836Z,49.20
2022-11-05T04:56:31.761Z,58.50
2022-11-05T04:57:31.755Z,49.60
2022-11-05T04:58:31.737Z,60.40
2022-11-05T04:59:31.729Z,60.80
2022-11-05T05:00:31.793Z,59.80
2022-11-05T05:01:31.938Z,57.10
2022-11-05T05:02:31.709Z,55.30
2022-11-05T05:03:31.720Z,53.40
2022-11-05T05:04:31.740Z,63.60
2022-11-05T05:05:31.655Z,56.80
2022-11-05T05:06:31.665Z,54.40
2022-11-05T05:07:31.686Z,51.50
2022-11-05T05:08:31.626Z,60.70
2022-11-05T05:09:31.625Z,57.60
2022-11-05T05:10:31.633Z,57.90
2022-11-05T05:11:31.629Z,55.40
2022-11-05T05:12:31.597Z,51.00
2022-11-05T05:13:31.595Z,58.70
2022-11-05T05:14:31.565Z,59.00
2022-11-05T05:15:31.572Z,55.80
2022-11-05T05:16:31.577Z,60.50
2022-11-05T05:17:31.599Z,53.60
2022-11-05T05:18:31.540Z,49.80
2022-11-05T05:19:31.551Z,51.40
2022-11-05T05:20:31.534Z,52.30
2022-11-05T05:21:31.504Z,48.80
2022-11-05T05:22:31.498Z,58.10
2022-11-05T05:23:31.498Z,51.00
2022-11-05T05:24:31.493Z,50.00
2022-11-05T05:25:31.509Z,44.70
2022-11-05T05:26:31.482Z,50.60
2022-11-05T05:27:31.466Z,43.20
2022-11-05T05:28:31.425Z,56.70
2022-11-05T05:29:31.446Z,43.00
2022-11-05T05:30:31.411Z,45.90
2022-11-05T05:31:31.415Z,48.10
2022-11-05T05:32:31.374Z,43.80
2022-11-05T05:33:31.422Z,42.90
2022-11-05T05:34:31.347Z,45.80
2022-11-05T05:35:31.351Z,39.50
2022-11-05T05:36:31.326Z,41.70
2022-11-05T05:37:31.344Z,48.20
2022-11-05T05:38:31.328Z,52.80
2022-11-05T05:39:31.339Z,41.50
2022-11-05T05:40:31.310Z,49.70
2022-11-05T05:41:31.302Z,52.50
2022-11-05T05:42:31.287Z,51.10
2022-11-05T05:43:31.327Z,44.70
2022-11-05T05:44:31.454Z,41.90
2022-11-05T05:45:31.246Z,44.40
2022-11-05T05:46:31.269Z,41.00
2022-11-05T05:47:31.279Z,38.60
2022-11-05T05:48:31.218Z,51.90
2022-11-05T05:49:31.230Z,48.80
2022-11-05T05:50:31.198Z,54.00
2022-11-05T05:51:31.191Z,45.80
2022-11-05T05:52:31.208Z,49.20
2022-11-05T05:53:31.176Z,53.70
2022-11-05T05:54:34.216Z,49.00
2022-11-05T05:55:31.139Z,52.70
2022-11-05T05:56:31.137Z,44.50
2022-11-05T05:57:31.136Z,44.90
2022-11-05T05:58:31.131Z,42.60
2022-11-05T05:59:31.115Z,51.30
2022-11-05T06:00:31.054Z,51.20
2022-11-05T06:01:31.223Z,50.30
2022-11-05T06:02:31.127Z,51.20
2022-11-05T06:03:31.042Z,51.80
2022-11-05T06:04:31.015Z,52.50
2022-11-05T06:05:31.011Z,54.10
2022-11-05T06:06:30.987Z,52.00
2022-11-05T06:07:36.057Z,53.70
2022-11-05T06:08:30.983Z,53.30
2022-11-05T06:09:30.988Z,57.20
2022-11-05T06:10:30.992Z,44.90
2022-11-05T06:11:30.958Z,48.90
2022-11-05T06:12:30.980Z,52.60
2022-11-05T06:13:30.924Z,56.80
2022-11-05T06:14:30.914Z,49.60
2022-11-05T06:15:35.711Z,44.60
2022-11-05T06:16:30.887Z,38.60
2022-11-05T06:17:30.871Z,40.10
2022-11-05T06:18:30.851Z,38.70
2022-11-05T06:19:30.918Z,47.50
2022-11-05T06:20:30.843Z,45.20
2022-11-05T06:21:30.827Z,45.60
2022-11-05T06:22:30.836Z,46.80
2022-11-05T06:23:30.839Z,44.20
2022-11-05T06:24:30.785Z,50.70
2022-11-05T06:25:30.814Z,46.30
2022-11-05T06:26:30.808Z,52.90
2022-11-05T06:27:30.778Z,47.10
2022-11-05T06:28:30.738Z,48.20
2022-11-05T06:29:30.736Z,46.50
2022-11-05T06:30:30.796Z,39.70
2022-11-05T06:31:30.720Z,42.00
2022-11-05T06:32:30.727Z,43.60
2022-11-05T06:33:30.677Z,52.00
2022-11-05T06:34:30.706Z,45.60
2022-11-05T06:35:30.674Z,52.30
2022-11-05T06:36:30.710Z,50.90
2022-11-05T06:37:30.651Z,44.20
2022-11-05T06:38:30.635Z,44.40
2022-11-05T06:39:30.656Z,46.60
2022-11-05T06:40:30.653Z,49.10
2022-11-05T06:41:30.596Z,44.90
2022-11-05T06:42:30.631Z,44.40
2022-11-05T06:43:30.615Z,39.60
2022-11-05T06:44:30.602Z,43.90
2022-11-05T06:45:30.569Z,46.30
2022-11-05T06:46:30.567Z,46.70
2022-11-05T06:47:30.552Z,47.60
2022-11-05T06:48:30.594Z,40.30
2022-11-05T06:49:30.563Z,45.50
2022-11-05T06:50:30.516Z,45.90
2022-11-05T06:51:30.599Z,40.60
2022-11-05T06:52:30.495Z,41.50
2022-11-05T06:53:30.475Z,45.20
2022-11-05T06:54:30.474Z,46.00
2022-11-05T06:55:30.546Z,43.80
2022-11-05T06:56:30.464Z,46.70
2022-11-05T06:57:30.448Z,51.00
2022-11-05T06:58:30.486Z,49.20
2022-11-05T06:59:30.415Z,53.90
2022-11-05T07:00:30.542Z,50.00
2022-11-05T07:01:30.523Z,39.40
2022-11-05T07:02:30.383Z,42.50
2022-11-05T07:03:30.378Z,45.60
2022-11-05T07:04:30.393Z,54.80
2022-11-05T07:05:30.460Z,47.90
2022-11-05T07:06:34.358Z,42.40
2022-11-05T07:07:30.354Z,45.50
2022-11-05T07:08:30.342Z,47.20
2022-11-05T07:09:30.344Z,46.20
2022-11-05T07:10:30.302Z,45.90
2022-11-05T07:11:30.396Z,45.90
2022-11-05T07:12:30.312Z,42.50
2022-11-05T07:13:30.277Z,53.90
2022-11-05T07:14:30.268Z,48.20
2022-11-05T07:15:30.236Z,48.30
2022-11-05T07:16:30.261Z,51.30
2022-11-05T07:17:30.251Z,48.30
2022-11-05T07:18:30.241Z,46.90
2022-11-05T07:19:30.212Z,46.40
2022-11-05T07:20:33.924Z,40.80
2022-11-05T07:21:30.194Z,42.30
2022-11-05T07:22:30.229Z,44.60
2022-11-05T07:23:30.183Z,46.10
2022-11-05T07:24:30.221Z,48.70
2022-11-05T07:25:30.154Z,47.90
2022-11-05T07:26:34.395Z,54.60
2022-11-05T07:27:30.152Z,47.90
2022-11-05T07:28:30.146Z,46.00
2022-11-05T07:29:30.106Z,45.30
2022-11-05T07:30:30.097Z,46.60
2022-11-05T07:31:30.163Z,47.80
2022-11-05T07:32:30.095Z,48.60
2022-11-05T07:33:35.236Z,51.90
2022-11-05T07:34:30.075Z,56.00
2022-11-05T07:35:30.099Z,47.10
2022-11-05T07:36:30.042Z,46.10
2022-11-05T07:37:30.029Z,52.80
2022-11-05T07:38:30.099Z,48.50
2022-11-05T07:39:30.007Z,51.30
2022-11-05T07:40:29.998Z,48.20
2022-11-05T07:41:30.116Z,51.10
2022-11-05T07:42:30.003Z,50.00
2022-11-05T07:43:29.975Z,54.00
2022-11-05T07:44:29.950Z,51.10
2022-11-05T07:45:29.953Z,52.60
2022-11-05T07:46:29.941Z,53.60
2022-11-05T07:47:29.956Z,47.80
2022-11-05T07:48:29.979Z,50.30
2022-11-05T07:49:29.886Z,49.10
2022-11-05T07:50:29.944Z,46.90
2022-11-05T07:51:29.896Z,47.20
2022-11-05T07:52:29.856Z,56.00
2022-11-05T07:53:29.892Z,50.70
2022-11-05T07:54:29.857Z,52.40
2022-11-05T07:55:29.826Z,56.00
2022-11-05T07:56:29.828Z,52.50
2022-11-05T07:57:29.828Z,50.80
2022-11-05T07:58:29.830Z,52.30
2022-11-05T07:59:29.801Z,53.40
2022-11-05T08:00:29.799Z,62.70
2022-11-05T08:01:29.922Z,55.00
2022-11-05T08:02:29.966Z,52.00
2022-11-05T08:03:29.895Z,56.50
2022-11-05T08:04:29.762Z,50.80
2022-11-05T08:05:29.730Z,53.80
2022-11-05T08:06:29.729Z,58.70
2022-11-05T08:07:29.731Z,54.20
2022-11-05T08:08:29.771Z,56.90
2022-11-05T08:09:29.674Z,58.60
2022-11-05T08:10:29.708Z,60.10
2022-11-05T08:11:29.676Z,55.20
2022-11-05T08:12:29.651Z,62.70
2022-11-05T08:13:29.651Z,64.90
2022-11-05T08:14:29.655Z,60.50
2022-11-05T08:15:29.668Z,64.10
2022-11-05T08:16:29.655Z,61.10
2022-11-05T08:17:29.602Z,60.20
2022-11-05T08:18:29.648Z,61.80
2022-11-05T08:19:29.593Z,66.70
2022-11-05T08:20:29.587Z,65.70
2022-11-05T08:21:29.564Z,61.00
2022-11-05T08:22:29.601Z,60.50
2022-11-05T08:23:29.587Z,62.80
2022-11-05T08:24:29.580Z,58.10
2022-11-05T08:25:29.541Z,59.50
2022-11-05T08:26:29.521Z,59.50
2022-11-05T08:27:29.498Z,61.60
2022-11-05T08:28:29.542Z,59.70
2022-11-05T08:29:29.505Z,55.60
2022-11-05T08:30:29.504Z,59.40
2022-11-05T08:31:29.483Z,62.70
2022-11-05T08:32:29.450Z,62.30
2022-11-05T08:33:29.430Z,61.00
2022-11-05T08:34:29.489Z,57.40
2022-11-05T08:35:29.451Z,58.90
2022-11-05T08:36:29.439Z,58.70
2022-11-05T08:37:29.417Z,60.60
2022-11-05T08:38:29.384Z,63.10
2022-11-05T08:39:29.403Z,57.60
2022-11-05T08:40:29.411Z,59.20
2022-11-05T08:41:29.426Z,60.20
2022-11-05T08:42:29.348Z,63.90
2022-11-05T08:43:29.355Z,58.80
2022-11-05T08:44:29.382Z,56.50
2022-11-05T08:45:29.654Z,54.00
2022-11-05T08:46:29.315Z,56.60
2022-11-05T08:47:29.301Z,54.80
2022-11-05T08:48:29.298Z,53.50
2022-11-05T08:49:29.319Z,48.70
2022-11-05T08:50:29.270Z,53.10
2022-11-05T08:51:29.265Z,49.00
2022-11-05T08:52:29.510Z,48.60
2022-11-05T08:53:29.607Z,49.10
2022-11-05T08:54:29.305Z,51.40
2022-11-05T08:55:29.241Z,46.90
2022-11-05T08:56:29.252Z,46.50
2022-11-05T08:57:29.218Z,45.80
2022-11-05T08:58:29.240Z,42.40
2022-11-05T08:59:29.226Z,41.60
2022-11-05T09:00:29.205Z,48.20
2022-11-05T09:01:29.351Z,43.70
2022-11-05T09:02:29.338Z,38.80
2022-11-05T09:03:29.172Z,40.90
2022-11-05T09:04:29.227Z,40.30
2022-11-05T09:05:29.116Z,40.10
2022-11-05T09:06:29.132Z,42.40
2022-11-05T09:07:29.143Z,43.40
2022-11-05T09:08:29.098Z,36.70
2022-11-05T09:09:29.103Z,36.60
2022-11-05T09:10:29.135Z,40.00
2022-11-05T09:11:49.601Z,41.30
2022-11-05T09:12:29.073Z,42.60
2022-11-05T09:13:29.235Z,41.30
2022-11-05T09:14:28.066Z,37.50
2022-11-05T09:15:29.045Z,42.30
2022-11-05T09:16:29.018Z,39.40
2022-11-05T09:17:28.992Z,36.30
2022-11-05T09:18:29.005Z,40.10
2022-11-05T09:19:28.957Z,35.40
2022-11-05T09:20:28.998Z,39.40
2022-11-05T09:21:28.975Z,37.70
2022-11-05T09:22:29.013Z,36.30
2022-11-05T09:23:28.961Z,38.90
2022-11-05T09:24:28.942Z,35.60
2022-11-05T09:25:28.913Z,40.00
2022-11-05T09:26:28.905Z,37.60
2022-11-05T09:27:28.918Z,36.40
2022-11-05T09:28:28.890Z,40.40
2022-11-05T09:29:28.878Z,35.50
2022-11-05T09:30:28.875Z,34.80
2022-11-05T09:31:28.846Z,29.60
2022-11-05T09:32:28.842Z,33.80
2022-11-05T09:33:28.833Z,33.60
2022-11-05T09:34:28.847Z,34.70
2022-11-05T09:35:28.799Z,33.80
2022-11-05T09:36:28.795Z,32.60
2022-11-05T09:37:28.767Z,33.50
2022-11-05T09:38:28.778Z,34.90
2022-11-05T09:39:28.756Z,30.10
2022-11-05T09:40:28.756Z,29.80
2022-11-05T09:41:28.734Z,27.70
2022-11-05T09:42:28.735Z,29.70
2022-11-05T09:43:31.782Z,26.50
2022-11-05T09:44:28.768Z,31.90
2022-11-05T09:45:28.722Z,32.20
2022-11-05T09:46:28.675Z,23.40
2022-11-05T09:47:28.680Z,23.80
2022-11-05T09:48:28.676Z,23.50
2022-11-05T09:49:28.647Z,26.90
2022-11-05T09:50:28.651Z,27.30
2022-11-05T09:51:28.660Z,24.70
2022-11-05T09:52:28.613Z,25.20
2022-11-05T09:53:28.615Z,22.50
2022-11-05T09:54:28.687Z,23.30
2022-11-05T09:55:28.592Z,23.40
2022-11-05T09:56:28.603Z,27.40
2022-11-05T09:57:28.624Z,26.10
2022-11-05T09:58:29.063Z,22.70
2022-11-05T09:59:28.597Z,23.20
2022-11-05T10:00:28.515Z,21.80
2022-11-05T10:01:28.715Z,22.40
2022-11-05T10:02:28.645Z,23.00
2022-11-05T10:03:28.539Z,23.30
2022-11-05T10:04:28.494Z,23.30
2022-11-05T10:05:28.546Z,23.30
2022-11-05T10:06:28.501Z,21.30
2022-11-05T10:07:28.459Z,20.70
2022-11-05T10:08:28.432Z,19.00
2022-11-05T10:09:28.480Z,21.50
2022-11-05T10:10:28.432Z,19.60
2022-11-05T10:11:28.420Z,21.60
2022-11-05T10:12:28.468Z,21.60
2022-11-05T10:13:28.410Z,18.00
2022-11-05T10:14:28.381Z,20.60
2022-11-05T10:15:28.371Z,19.10
2022-11-05T10:16:28.421Z,19.80
2022-11-05T10:17:28.372Z,20.10
2022-11-05T10:18:28.331Z,22.60
2022-11-05T10:19:28.376Z,20.00
2022-11-05T10:20:28.316Z,18.80
2022-11-05T10:21:59.645Z,19.50
2022-11-05T10:22:28.290Z,22.00
2022-11-05T10:23:28.584Z,17.70
2022-11-05T10:24:28.276Z,16.70
2022-11-05T10:25:28.278Z,19.50
2022-11-05T10:26:28.270Z,16.30
2022-11-05T10:27:28.245Z,19.30
2022-11-05T10:28:28.213Z,19.30
2022-11-05T10:29:28.227Z,16.90
2022-11-05T10:30:28.213Z,16.50
2022-11-05T10:31:32.871Z,18.90
2022-11-05T10:32:28.231Z,17.70
2022-11-05T10:33:28.199Z,21.30
2022-11-05T10:34:28.191Z,15.50
2022-11-05T10:35:28.165Z,18.30
2022-11-05T10:36:28.141Z,17.70
2022-11-05T10:37:28.535Z,17.80
2022-11-05T10:38:28.210Z,21.30
2022-11-05T10:39:28.173Z,17.60
2022-11-05T10:40:28.185Z,15.60
2022-11-05T10:41:28.158Z,18.90
2022-11-05T10:42:28.097Z,16.50
2022-11-05T10:43:28.099Z,18.50
2022-11-05T10:44:28.113Z,19.00
2022-11-05T10:45:28.172Z,20.60
2022-11-05T10:46:28.043Z,18.20
2022-11-05T10:47:28.057Z,15.80
2022-11-05T10:48:28.314Z,16.00
2022-11-05T10:49:28.032Z,17.30
2022-11-05T10:50:28.048Z,20.60
2022-11-05T10:51:28.027Z,14.70
2022-11-05T10:52:28.032Z,15.60
2022-11-05T10:53:27.992Z,15.00
2022-11-05T10:54:28.031Z,16.20
2022-11-05T10:55:27.963Z,16.90
2022-11-05T10:56:28.022Z,14.80
2022-11-05T10:57:27.976Z,16.90
2022-11-05T10:58:28.014Z,17.30
2022-11-05T10:59:27.980Z,15.00
2022-11-05T11:00:27.887Z,13.90
2022-11-05T11:01:28.068Z,14.40
2022-11-05T11:02:27.993Z,15.40
2022-11-05T11:03:27.909Z,15.60
2022-11-05T11:04:27.856Z,18.90
2022-11-05T11:05:27.855Z,13.50
2022-11-05T11:06:27.860Z,16.30
2022-11-05T11:07:27.865Z,14.30
2022-11-05T11:08:27.880Z,16.00
2022-11-05T11:09:27.836Z,16.80
2022-11-05T11:10:27.848Z,14.80
2022-11-05T11:11:27.786Z,15.70
2022-11-05T11:12:27.795Z,14.90
2022-11-05T11:13:27.769Z,13.80
2022-11-05T11:14:27.801Z,15.60
2022-11-05T11:15:27.754Z,14.50
2022-11-05T11:16:27.774Z,13.10
2022-11-05T11:17:27.798Z,12.50
2022-11-05T11:18:27.718Z,16.30
2022-11-05T11:19:27.734Z,14.70
2022-11-05T11:20:27.701Z,12.80
2022-11-05T11:21:27.763Z,16.10
2022-11-05T11:22:27.663Z,12.50
2022-11-05T11:23:27.657Z,15.60
2022-11-05T11:24:32.541Z,16.50
2022-11-05T11:25:27.639Z,16.60
2022-11-05T11:26:27.607Z,12.50
2022-11-05T11:27:27.628Z,13.00
2022-11-05T11:28:27.593Z,13.00
2022-11-05T11:29:27.614Z,15.50
2022-11-05T11:30:27.584Z,13.10
2022-11-05T11:31:27.577Z,15.60
2022-11-05T11:32:27.581Z,12.70
2022-11-05T11:33:27.565Z,12.60
2022-11-05T11:34:27.558Z,11.50
2022-11-05T11:35:27.551Z,12.60
2022-11-05T11:36:27.629Z,14.20
2022-11-05T11:37:27.535Z,12.80
2022-11-05T11:38:27.492Z,12.60
2022-11-05T11:39:27.493Z,12.80
2022-11-05T11:40:27.498Z,15.60
2022-11-05T11:41:27.507Z,13.60
2022-11-05T11:42:27.447Z,11.30
2022-11-05T11:43:27.477Z,14.20
2022-11-05T11:44:27.472Z,13.10
2022-11-05T11:45:27.435Z,16.60
2022-11-05T11:46:27.427Z,12.60
2022-11-05T11:47:27.477Z,12.10
2022-11-05T11:48:27.393Z,14.00
2022-11-05T11:49:27.403Z,12.80
2022-11-05T11:50:27.422Z,12.90
2022-11-05T11:51:27.529Z,15.20
2022-11-05T11:52:27.347Z,12.60
2022-11-05T11:53:27.354Z,13.20
2022-11-05T11:54:29.222Z,13.80
2022-11-05T11:55:27.349Z,13.70
2022-11-05T11:56:27.302Z,14.30
2022-11-05T11:57:27.331Z,13.60
2022-11-05T11:58:27.327Z,10.90
2022-11-05T11:59:53.741Z,16.10
2022-11-05T12:00:27.261Z,12.50
2022-11-05T12:01:27.602Z,12.70
2022-11-05T12:02:27.313Z,15.40
2022-11-05T12:03:27.996Z,12.80
2022-11-05T12:04:27.231Z,12.50
2022-11-05T12:05:27.233Z,15.70
2022-11-05T12:06:27.237Z,16.50
2022-11-05T12:07:27.231Z,14.10
2022-11-05T12:08:27.213Z,11.90
2022-11-05T12:09:27.171Z,12.40
2022-11-05T12:10:27.254Z,15.90
2022-11-05T12:11:27.176Z,14.30
2022-11-05T12:12:27.184Z,14.10
2022-11-05T12:13:27.168Z,15.00
2022-11-05T12:14:27.163Z,14.40
2022-11-05T12:15:27.196Z,14.00
2022-11-05T12:16:27.112Z,13.60
2022-11-05T12:17:27.114Z,15.30
2022-11-05T12:18:27.101Z,18.30
2022-11-05T12:19:27.120Z,11.90
2022-11-05T12:20:27.123Z,16.10
2022-11-05T12:21:48.091Z,12.20
2022-11-05T12:22:27.038Z,12.80
2022-11-05T12:23:27.165Z,14.20
2022-11-05T12:24:27.056Z,17.00
2022-11-05T12:25:27.032Z,14.70
2022-11-05T12:26:26.991Z,16.50
2022-11-05T12:27:26.988Z,13.90
2022-11-05T12:28:27.036Z,15.70
2022-11-05T12:29:30.154Z,14.30
2022-11-05T12:30:26.950Z,12.80
2022-11-05T12:31:26.964Z,15.80
2022-11-05T12:32:27.080Z,13.60
2022-11-05T12:33:26.919Z,13.60
2022-11-05T12:34:26.935Z,12.70
2022-11-05T12:35:27.073Z,13.80
2022-11-05T12:36:27.647Z,10.80
2022-11-05T12:37:27.040Z,12.30
2022-11-05T12:38:27.499Z,11.00
2022-11-05T12:39:26.873Z,15.20
2022-11-05T12:40:27.058Z,11.80
2022-11-05T12:41:26.916Z,13.90
2022-11-05T12:42:26.854Z,12.80
2022-11-05T12:43:26.810Z,14.70
2022-11-05T12:44:26.804Z,12.90
2022-11-05T12:45:26.797Z,14.40
2022-11-05T12:46:26.780Z,13.90
2022-11-05T12:47:26.770Z,15.40
2022-11-05T12:48:30.278Z,15.30
2022-11-05T12:49:26.794Z,14.30
2022-11-05T12:50:26.757Z,14.60
2022-11-05T12:51:26.732Z,18.60
2022-11-05T12:52:26.726Z,14.70
2022-11-05T12:53:26.705Z,15.20